Pitts, Georgia
Current Conditions -  °F | °C
As of 11:55 AM on Friday 28 Nov 2014 (Local Time) from KCKF Reporting Station
Clear Clear  
Wind Chill: 47°   Ceiling: Unl
Heat Index: 47°   Visibility: 10mi
Dew Point: 26°   Wind: 3mph
Humidity: 44%   Direction: 310°NW
Pressure: 30.41"   Gusts: NA
Location:  31.94°N, 83.54°W
Report Text: KCKF 281655Z AUTO 31003KT 10SM CLR 08/M03 A3041 RMK AO2 T00811034
Loading
Personal Weather Stations






























Interactive Weather Map New forecast layout! Learn more

10-Day Weather Forecast

Advertisements
Track Severe Weather on mobile